Flight Track Log - Related Links

Times and Time Zones

All times are in EST time to prevent confusion due to time zone crossing. See the ASQ5740 flight status page for this flight to view local times or setup timezone preferences in your user account.

Time Position Orientation Groundspeed Altitude Reporting Facility
EST Latitude Longitude Course Direction KTS MPH feet Rate Location/Type
Fri 03:20:42 PM 34.8322 -82.1992 73° East 133 153 4,300  Level Atlanta Center
Fri 03:21:42 PM 34.8836 -82.1397 43° Northeast 133 153 6,400 2,150 Climbing Atlanta Center
Fri 03:22:00 PM 35.2344 -81.8476 80° East  Level Estimated
Fri 03:22:42 PM 34.9453 -82.0850 36° Northeast 198 228 8,600  Level Atlanta Center
Fri 03:23:00 PM 35.3189 -81.7543 71° East  Level Estimated
Fri 03:23:42 PM 35.0153 -82.0225 36° Northeast 264 304 10,300  Level Atlanta Center
Fri 03:24:00 PM 35.4230 -81.6979 24° Northeast  Level FlightAware Approximate
Fri 03:24:42 PM 35.0914 -81.9572 35° Northeast 299 344 12,500  Level Atlanta Center
Fri 03:25:00 PM 35.5068 -81.6035 73° East  Level Estimated
Fri 03:25:42 PM 35.1786 -81.9372 11° North 306 352 14,400  Level Atlanta Center
Fri 03:26:42 PM 35.2686 -81.9428 357° North 306 352 16,100 1,700 Climbing Atlanta Center
Fri 03:27:42 PM 35.3381 -81.8697 41° Northeast 306 352 17,800 1,400 Climbing Atlanta Center
Fri 03:28:42 PM 35.3819 -81.7539 65° Northeast 314 361 18,900 1,250 Climbing Atlanta Center
Fri 03:29:42 PM 35.4256 -81.6406 65° Northeast 342 394 20,300 1,250 Climbing Atlanta Center
Fri 03:30:42 PM 35.4692 -81.5244 65° Northeast 354 407 21,400 1,050 Climbing Atlanta Center
Fri 03:31:42 PM 35.5147 -81.4083 64° Northeast 365 420 22,400 750 Climbing Atlanta Center
Fri 03:32:42 PM 35.5642 -81.2789 65° Northeast 372 428 22,900 800 Climbing Atlanta Center
Fri 03:33:42 PM 35.6172 -81.1419 64° Northeast 392 451 24,000 1,000 Climbing Atlanta Center
Fri 03:34:42 PM 35.6792 -81.0194 58° Northeast 411 473 24,900 900 Climbing Atlanta Center
Fri 03:35:42 PM 35.7386 -80.8969 59° Northeast 416 479 25,800 550 Climbing Atlanta Center
Fri 03:36:42 PM 35.8022 -80.7767 57° Northeast 416 479 26,000 200 Climbing Atlanta Center
Fri 03:37:42 PM 35.8633 -80.6489 59° Northeast 416 479 26,200 450 Climbing Atlanta Center
Fri 03:38:42 PM 35.9286 -80.5203 58° Northeast 428 493 26,900 650 Climbing Atlanta Center
Fri 03:39:42 PM 35.9914 -80.3867 60° Northeast 434 499 27,500 600 Climbing Atlanta Center
Fri 03:40:42 PM 36.0586 -80.2606 57° Northeast 434 499 28,100 606 Climbing Atlanta Center
Fri 03:42:50 PM 36.1944 -79.9803 59° Northeast 438 504 29,400 603 Climbing Washington Center
Fri 03:43:51 PM 36.2578 -79.8475 59° Northeast 438 504 30,000 605 Climbing Washington Center
Fri 03:44:49 PM 36.3164 -79.7242 59° Northeast 448 516 30,600 504 Climbing Washington Center
Fri 03:45:50 PM 36.3919 -79.5836 56° Northeast 453 521 31,000 198 Climbing Washington Center
Fri 03:46:50 PM 36.4911 -79.4881 38° Northeast 444 511 31,000 -496 Level Washington Center
Fri 03:47:51 PM 36.5900 -79.3972 36° Northeast 433 498 30,000 -958 Descending Washington Center
Fri 03:48:49 PM 36.6803 -79.3161 36° Northeast 444 511 29,100 -504 Descending Washington Center
Fri 03:49:50 PM 36.7875 -79.2175 36° Northeast 437 503 29,000 -545 Descending Washington Center
Fri 03:50:50 PM 36.8656 -79.1253 43° Northeast 432 497 28,000 -1,438 Descending Washington Center
Fri 03:51:51 PM 36.8992 -78.9658 75° East 406 467 26,100 -1,488 Descending Washington Center
Fri 03:52:51 PM 36.9217 -78.8369 78° East 412 474 25,000 -559 Descending Washington Center
Fri 03:53:49 PM 36.9464 -78.6872 78° East 406 467 25,000  Level Washington Center
Fri 03:54:50 PM 36.9642 -78.5606 80° East 406 467 25,000 -198 Level Washington Center
Fri 03:55:50 PM 36.9867 -78.4053 80° East 411 473 24,600 -645 Descending Washington Center
Fri 03:56:51 PM 37.0044 -78.2758 80° East 405 466 23,700 -793 Descending Washington Center
Fri 03:57:51 PM 37.0264 -78.1283 79° East 410 472 23,000 -356 Descending Washington Center
Fri 03:58:49 PM 37.0439 -77.9911 81° East 404 465 23,000  Level Washington Center
Fri 03:59:50 PM 37.1103 -77.9019 47° Northeast 345 397 23,000  Level Washington Center
Fri 04:00:50 PM 37.1864 -77.9539 331° Northwest 225 259 23,000 -50 Level Washington Center
Fri 04:01:51 PM 37.2539 -78.0211 322° Northwest 242 278 22,900 -504 Descending Washington Center
Fri 04:02:49 PM 37.3256 -78.0861 324° Northwest 282 325 22,000 -458 Descending Washington Center
Fri 04:03:49 PM 37.4158 -78.0525 16° North 286 329 22,000 -298 Level Washington Center
Fri 04:04:50 PM 37.4747 -77.9364 57° Northeast 302 348 21,400 -843 Descending Washington Center
Fri 04:05:50 PM 37.5372 -77.8258 54° Northeast 339 390 20,300 -1,041 Descending Washington Center
Fri 04:06:51 PM 37.6258 -77.7708 26° Northeast 346 398 19,300 -992 Descending Washington Center
Fri 04:07:51 PM 37.7161 -77.7419 14° North 330 380 18,300 -915 Descending Washington Center
Fri 04:08:49 PM 37.8014 -77.7547 353° North 317 365 17,500 -915 Descending Washington Center
Fri 04:09:49 PM 37.8331 -77.8425 295° West 245 282 16,500 -1,091 Descending Washington Center
Fri 04:10:50 PM 37.8969 -77.8786 336° Northwest 253 291 15,300 -1,033 Descending Washington Center
Fri 04:11:51 PM 37.9633 -77.7964 44° Northeast 239 275 14,400 -1,140 Descending Washington Center
Fri 04:12:51 PM 38.0297 -77.6956 50° Northeast 275 316 13,000 -1,322 Descending Washington Center
Fri 04:13:49 PM 38.0856 -77.6047 52° Northeast 307 353 11,800 -1,220 Descending Washington Center
Fri 04:14:49 PM 38.1411 -77.5164 51° Northeast 314 361 10,600 -893 Descending Washington Center
Fri 04:15:50 PM 38.2008 -77.4361 47° Northeast 319 367 10,000 -295 Descending Washington Center
Fri 04:16:51 PM 38.2786 -77.3903 25° Northeast 304 350 10,000 -303 Level Washington Center
Fri 04:17:49 PM 38.3542 -77.3578 19° North 291 335 9,400 -1,109 Descending Washington Center
Fri 04:18:50 PM 38.4333 -77.3597 359° North 282 325 7,800 -1,488 Descending Washington Center
Fri 04:19:50 PM 38.5106 -77.3614 359° North 271 312 6,400 -1,339 Descending Washington Center
Fri 04:20:51 PM 38.5833 -77.3683 356° North 271 312 5,100 -1,059 Descending Washington Center
Fri 04:21:49 PM 38.6586 -77.3650 North 271 312 4,300 -559 Descending Washington Center
Fri 04:22:49 PM 38.7336 -77.3642 360° North 271 312 4,000 -129 Descending Washington Center
Fri 04:24:08 PM 38.8333 -77.3500 North 263 303 4,000 -259 Level Potomac TRACON
Fri 04:25:08 PM 38.9167 -77.3500 360° North 266 306 3,400 -496 Descending Potomac TRACON
Fri 04:26:09 PM 38.9833 -77.3500 360° North 258 297 3,000 -645 Descending Potomac TRACON
Fri 04:27:09 PM 39.0500 -77.3500 360° North 226 260 2,100 -500 Descending Potomac TRACON
Fri 04:28:09 PM 39.0833 -77.3833 322° Northwest 194 223 2,000 -50 Descending Potomac TRACON
Fri 04:29:09 PM 39.0500 -77.4333 229° Southwest 173 199 2,000 -350 Level Potomac TRACON
Fri 04:30:09 PM 39.0000 -77.4333 180° South 148 170 1,300 -700 Descending Potomac TRACON
Fri 04:32:00 PM 38.9474 -77.4599 191° South  Level Estimated
Fri 04:39:00 PM 38.9474 -77.4599 191° South  Level Estimated

Login

Don't have an account? Register now (free) for customized features, flight alerts, and more!